Time;durP1;ratioP1;P1;durP2;ratioP2;P2;SDS_P1;SDS_P2;PMS_P1;PMS_P2;Temp;Humidity;BMP_temperature;BMP_pressure;BME280_temperature;BME280_humidity;BME280_pressure;Samples;Min_cycle;Max_cycle;Signal;HPM_P1;HPM_P2
2023/12/30 00:00:17;;;;;;;5.65;1.30;;;7.70;99.90;;;;;;5012541;28;20057;-51
2023/12/30 00:02:42;;;;;;;6.20;0.82;;;7.80;99.90;;;;;;5019415;28;20562;-51
2023/12/30 00:05:08;;;;;;;5.43;0.95;;;7.80;99.90;;;;;;5022597;28;20084;-52
2023/12/30 00:07:34;;;;;;;5.72;0.95;;;7.80;99.90;;;;;;5027949;28;20060;-54
2023/12/30 00:09:59;;;;;;;7.18;0.80;;;7.90;99.90;;;;;;5019883;28;20065;-51
2023/12/30 00:12:25;;;;;;;12.27;1.25;;;7.90;99.90;;;;;;5024544;28;20038;-52
2023/12/30 00:14:51;;;;;;;4.38;0.50;;;7.90;99.90;;;;;;5024196;28;20025;-50
2023/12/30 00:17:16;;;;;;;9.27;0.82;;;7.90;99.90;;;;;;5018239;28;20033;-52
2023/12/30 00:19:44;;;;;;;2.28;0.50;;;7.90;99.90;;;;;;5026505;28;20034;-54
2023/12/30 00:22:11;;;;;;;8.35;0.73;;;8.00;99.90;;;;;;5027624;28;20372;-49
2023/12/30 00:24:36;;;;;;;4.80;0.65;;;8.00;99.90;;;;;;5022781;28;20037;-51
2023/12/30 00:27:02;;;;;;;6.68;0.90;;;8.00;99.90;;;;;;5021361;28;20531;-53
2023/12/30 00:29:27;;;;;;;3.25;0.88;;;8.00;99.90;;;;;;5015588;28;20131;-52
2023/12/30 00:31:53;;;;;;;4.88;0.88;;;8.00;99.90;;;;;;5023855;28;20034;-52
2023/12/30 00:34:18;;;;;;;5.40;1.48;;;7.90;99.90;;;;;;5028851;28;20029;-52
2023/12/30 00:36:44;;;;;;;3.03;0.50;;;7.90;99.90;;;;;;5019641;28;20080;-55
2023/12/30 00:39:10;;;;;;;3.75;0.45;;;7.90;99.90;;;;;;5030559;28;20497;-52
2023/12/30 00:41:36;;;;;;;3.67;0.80;;;7.90;99.90;;;;;;5030540;28;20046;-51
2023/12/30 00:44:01;;;;;;;3.20;0.77;;;7.90;99.90;;;;;;5014634;28;20029;-51
2023/12/30 00:46:27;;;;;;;6.97;0.65;;;8.00;99.90;;;;;;5019944;28;20104;-51
2023/12/30 00:48:53;;;;;;;8.38;1.10;;;8.00;99.90;;;;;;5032076;28;20030;-52
2023/12/30 00:51:18;;;;;;;4.90;1.10;;;8.00;99.90;;;;;;5018936;28;20034;-52
2023/12/30 00:53:44;;;;;;;2.17;0.50;;;8.10;99.90;;;;;;5021252;28;20347;-52
2023/12/30 00:56:10;;;;;;;2.40;0.88;;;8.10;99.90;;;;;;5027164;28;20040;-55
2023/12/30 00:58:36;;;;;;;10.20;1.35;;;8.10;99.90;;;;;;5025140;28;20034;-54
2023/12/30 01:01:01;;;;;;;5.28;0.90;;;8.10;99.90;;;;;;5010104;28;20136;-57
2023/12/30 01:03:27;;;;;;;5.28;0.85;;;8.00;99.90;;;;;;5023253;28;20097;-56
2023/12/30 01:05:52;;;;;;;4.18;1.20;;;8.00;99.90;;;;;;5022285;28;20030;-55
2023/12/30 01:08:18;;;;;;;7.78;1.23;;;8.00;99.90;;;;;;5022992;28;20542;-56
2023/12/30 01:10:44;;;;;;;9.90;2.00;;;8.00;99.90;;;;;;5023466;28;20033;-57
2023/12/30 01:13:09;;;;;;;5.53;1.45;;;7.90;99.90;;;;;;5022671;28;20484;-54
2023/12/30 01:15:35;;;;;;;5.45;1.10;;;7.90;99.90;;;;;;5018979;28;20044;-56
2023/12/30 01:18:02;;;;;;;3.60;0.93;;;7.90;99.90;;;;;;5024820;28;20029;-56
2023/12/30 01:20:28;;;;;;;6.03;0.88;;;8.00;99.90;;;;;;5022267;28;20518;-57
2023/12/30 01:22:54;;;;;;;8.13;1.60;;;8.00;99.90;;;;;;5022965;28;20048;-56
2023/12/30 01:25:19;;;;;;;16.65;1.48;;;8.10;99.90;;;;;;5028487;28;20029;-57
2023/12/30 01:27:45;;;;;;;15.50;1.88;;;8.10;99.90;;;;;;5017113;28;20044;-54
2023/12/30 01:30:11;;;;;;;5.85;1.05;;;8.20;99.90;;;;;;5025608;28;20450;-56
2023/12/30 01:32:37;;;;;;;9.25;1.55;;;8.20;99.90;;;;;;5027504;28;20116;-57
2023/12/30 01:35:03;;;;;;;11.00;1.35;;;8.20;99.90;;;;;;5026860;28;20022;-56
2023/12/30 01:37:29;;;;;;;11.23;3.05;;;8.10;99.90;;;;;;5028124;28;20538;-54
2023/12/30 01:39:55;;;;;;;7.82;1.25;;;8.20;99.90;;;;;;5025403;28;20108;-56
2023/12/30 01:42:20;;;;;;;16.10;1.67;;;8.20;99.90;;;;;;5029042;28;20403;-54
2023/12/30 01:44:46;;;;;;;5.72;1.33;;;8.20;99.90;;;;;;5024645;28;20076;-57
2023/12/30 01:47:11;;;;;;;12.90;1.58;;;8.20;99.90;;;;;;5031691;28;20498;-57
2023/12/30 01:49:37;;;;;;;6.60;2.08;;;8.20;99.90;;;;;;5024854;28;20044;-54
2023/12/30 01:52:04;;;;;;;9.10;1.88;;;8.20;99.90;;;;;;5030074;28;20108;-58
2023/12/30 01:54:31;;;;;;;10.73;1.77;;;8.20;99.90;;;;;;5028590;28;20041;-57
2023/12/30 01:56:58;;;;;;;13.25;1.42;;;8.10;99.90;;;;;;5030573;28;20043;-54
2023/12/30 01:59:26;;;;;;;13.52;1.13;;;8.10;99.90;;;;;;5026417;28;20032;-54
2023/12/30 02:01:53;;;;;;;12.75;1.55;;;8.00;99.90;;;;;;5022840;28;20044;-55
2023/12/30 02:04:19;;;;;;;3.47;0.93;;;8.00;99.90;;;;;;5022715;28;20076;-55
2023/12/30 02:06:44;;;;;;;7.28;1.52;;;8.00;99.90;;;;;;5023874;28;20456;-54
2023/12/30 02:09:10;;;;;;;10.10;1.45;;;8.00;99.90;;;;;;5020765;28;20109;-57
2023/12/30 02:11:37;;;;;;;14.10;1.98;;;7.90;99.90;;;;;;5023447;28;20053;-55
2023/12/30 02:14:03;;;;;;;13.25;1.65;;;8.00;99.90;;;;;;5015859;28;20384;-54
2023/12/30 02:16:28;;;;;;;10.90;2.65;;;8.00;99.90;;;;;;5018379;28;20025;-55
2023/12/30 02:18:54;;;;;;;6.25;1.92;;;8.00;99.90;;;;;;5020830;28;20037;-55
2023/12/30 02:21:19;;;;;;;6.03;1.27;;;8.00;99.90;;;;;;5021661;28;20539;-54
2023/12/30 02:23:53;;;;;;;9.15;2.15;;;8.10;99.90;;;;;;5023942;28;20083;-57
2023/12/30 02:26:19;;;;;;;10.18;1.77;;;8.10;99.90;;;;;;5020357;28;21304;-57
2023/12/30 02:28:45;;;;;;;8.65;1.65;;;8.10;99.90;;;;;;5024567;28;20025;-57
2023/12/30 02:31:10;;;;;;;7.03;1.63;;;8.10;99.90;;;;;;5024283;28;20107;-57
2023/12/30 02:33:36;;;;;;;9.60;1.77;;;8.10;99.90;;;;;;5023235;28;20076;-56
2023/12/30 02:36:01;;;;;;;10.07;1.42;;;8.10;99.90;;;;;;5021557;28;20026;-56
2023/12/30 02:38:27;;;;;;;7.60;1.55;;;8.10;99.90;;;;;;5027943;28;20053;-56
2023/12/30 02:40:52;;;;;;;11.45;1.90;;;8.10;99.90;;;;;;5026831;28;20037;-57
2023/12/30 02:43:18;;;;;;;10.00;2.08;;;8.10;99.90;;;;;;5026418;28;20026;-55
2023/12/30 02:45:44;;;;;;;10.98;1.48;;;8.10;99.90;;;;;;5029118;28;20033;-54
2023/12/30 02:48:09;;;;;;;8.20;1.50;;;8.10;99.90;;;;;;5029932;28;20105;-54
2023/12/30 02:50:35;;;;;;;12.38;1.58;;;8.10;99.90;;;;;;5027260;28;20048;-53
2023/12/30 02:53:00;;;;;;;13.05;2.00;;;8.10;99.90;;;;;;5030188;28;20028;-57
2023/12/30 02:55:26;;;;;;;9.07;1.08;;;8.10;99.90;;;;;;5027909;28;20033;-53
2023/12/30 02:57:51;;;;;;;10.10;1.92;;;8.10;99.90;;;;;;5027008;28;20094;-57
2023/12/30 03:00:17;;;;;;;8.48;1.90;;;8.20;99.90;;;;;;5014048;28;20037;-56
2023/12/30 03:02:43;;;;;;;10.77;1.40;;;8.10;99.90;;;;;;5029479;28;20025;-56
2023/12/30 03:05:09;;;;;;;7.10;1.45;;;8.20;99.90;;;;;;5028628;28;20040;-56
2023/12/30 03:07:36;;;;;;;7.50;1.60;;;8.20;99.90;;;;;;5024437;28;20029;-54
2023/12/30 03:10:04;;;;;;;5.68;1.45;;;8.20;99.90;;;;;;5026114;28;20499;-55
2023/12/30 03:12:29;;;;;;;7.82;2.10;;;8.20;99.90;;;;;;5025483;28;20029;-57
2023/12/30 03:14:55;;;;;;;5.55;1.98;;;8.20;99.90;;;;;;5026027;28;20068;-56
2023/12/30 03:17:20;;;;;;;9.43;2.20;;;8.20;99.90;;;;;;5024607;28;20032;-57
2023/12/30 03:19:46;;;;;;;7.78;1.05;;;8.20;99.90;;;;;;5019198;28;20029;-56
2023/12/30 03:22:11;;;;;;;7.78;1.45;;;8.20;99.90;;;;;;5021906;28;20032;-54
2023/12/30 03:24:37;;;;;;;10.15;1.73;;;8.20;99.90;;;;;;5019335;28;20032;-54
2023/12/30 03:27:03;;;;;;;12.98;1.50;;;8.20;99.90;;;;;;5020925;28;20022;-57
2023/12/30 03:29:28;;;;;;;6.80;1.02;;;8.20;99.90;;;;;;5000257;28;20068;-55
2023/12/30 03:31:55;;;;;;;9.20;1.55;;;8.20;99.90;;;;;;5028702;28;20061;-56
2023/12/30 03:34:20;;;;;;;8.18;1.50;;;8.20;99.90;;;;;;5026561;28;20100;-55
2023/12/30 03:36:46;;;;;;;11.65;1.90;;;8.20;99.90;;;;;;5025065;28;20491;-56
2023/12/30 03:39:11;;;;;;;11.93;1.67;;;8.20;99.90;;;;;;5024690;28;20030;-55
2023/12/30 03:41:37;;;;;;;14.68;1.60;;;8.20;99.90;;;;;;5022078;28;20034;-55
2023/12/30 03:44:03;;;;;;;8.98;1.58;;;8.20;99.90;;;;;;5029516;28;20105;-57
2023/12/30 03:46:28;;;;;;;6.93;1.50;;;8.20;99.90;;;;;;5024019;28;20103;-55
2023/12/30 03:48:54;;;;;;;14.10;3.13;;;8.20;99.90;;;;;;5020346;28;20026;-57
2023/12/30 03:51:20;;;;;;;10.90;1.25;;;8.20;99.90;;;;;;5023711;28;20029;-55
2023/12/30 03:53:45;;;;;;;9.55;1.40;;;8.10;99.90;;;;;;5025481;28;20492;-57
2023/12/30 03:56:12;;;;;;;12.25;1.63;;;8.10;99.90;;;;;;5019722;28;20038;-53
2023/12/30 03:58:37;;;;;;;13.48;1.50;;;8.10;99.90;;;;;;5028702;28;20554;-57
2023/12/30 04:01:03;;;;;;;10.27;2.17;;;8.10;99.90;;;;;;5006414;28;20042;-54
2023/12/30 04:03:29;;;;;;;4.43;1.05;;;8.10;99.90;;;;;;5024275;28;20478;-57
2023/12/30 04:05:55;;;;;;;9.88;2.10;;;8.10;99.90;;;;;;5023424;28;20022;-58
2023/12/30 04:08:20;;;;;;;7.57;2.17;;;8.00;99.90;;;;;;5016914;28;20046;-54
2023/12/30 04:10:46;;;;;;;6.18;1.92;;;8.00;99.90;;;;;;5021831;28;20033;-57
2023/12/30 04:13:11;;;;;;;12.95;1.40;;;8.00;99.90;;;;;;5028777;28;20558;-56
2023/12/30 04:15:37;;;;;;;7.13;1.80;;;7.90;99.90;;;;;;5026234;28;20104;-57
2023/12/30 04:18:03;;;;;;;7.50;1.30;;;7.90;99.90;;;;;;5031466;28;20032;-54
2023/12/30 04:20:28;;;;;;;7.18;1.40;;;7.80;99.90;;;;;;5023499;28;20033;-56
2023/12/30 04:22:54;;;;;;;13.45;1.30;;;7.80;99.90;;;;;;5019161;28;20034;-54
2023/12/30 04:25:20;;;;;;;7.55;1.30;;;7.80;99.90;;;;;;5023676;28;20502;-58
2023/12/30 04:27:46;;;;;;;14.32;1.30;;;7.70;99.90;;;;;;5027642;28;20033;-55
2023/12/30 04:30:12;;;;;;;8.90;2.22;;;7.70;99.90;;;;;;5025539;28;20034;-54
2023/12/30 04:32:38;;;;;;;11.18;2.17;;;7.70;99.90;;;;;;5017416;28;20037;-57
2023/12/30 04:35:04;;;;;;;12.00;2.08;;;7.70;99.90;;;;;;5026897;28;20551;-55
2023/12/30 04:37:29;;;;;;;14.00;2.08;;;7.60;99.90;;;;;;5026559;28;20025;-54
2023/12/30 04:39:55;;;;;;;10.55;1.50;;;7.60;99.90;;;;;;5019743;28;20105;-55
2023/12/30 04:42:21;;;;;;;12.75;1.77;;;7.60;99.90;;;;;;5025677;28;20046;-57
2023/12/30 04:44:46;;;;;;;17.17;3.10;;;7.60;99.90;;;;;;5016681;28;20032;-56
2023/12/30 04:47:12;;;;;;;13.73;1.65;;;7.60;99.90;;;;;;5025666;28;20507;-54
2023/12/30 04:49:37;;;;;;;12.68;1.77;;;7.50;99.90;;;;;;5028738;28;20041;-54
2023/12/30 04:52:03;;;;;;;11.48;1.75;;;7.50;99.90;;;;;;5023407;28;20104;-54
2023/12/30 04:54:30;;;;;;;20.38;1.75;;;7.60;99.90;;;;;;5026396;28;20096;-57
2023/12/30 04:56:56;;;;;;;15.00;1.67;;;7.60;99.90;;;;;;5025554;28;20070;-56
2023/12/30 04:59:22;;;;;;;10.02;1.58;;;7.70;99.90;;;;;;5023726;28;20029;-57
2023/12/30 05:01:47;;;;;;;6.57;1.20;;;7.70;99.90;;;;;;5011175;28;20049;-53
2023/12/30 05:04:13;;;;;;;17.83;1.70;;;7.70;99.90;;;;;;5027188;28;20095;-54
2023/12/30 05:06:38;;;;;;;12.90;1.73;;;7.70;99.90;;;;;;5027521;28;20044;-54
2023/12/30 05:09:05;;;;;;;13.80;2.53;;;7.70;99.90;;;;;;5028819;28;20029;-54
2023/12/30 05:11:30;;;;;;;10.20;1.60;;;7.60;99.90;;;;;;5023305;28;20042;-56
2023/12/30 05:13:56;;;;;;;17.15;2.38;;;7.60;99.90;;;;;;5025156;28;20029;-54
2023/12/30 05:16:21;;;;;;;9.50;1.60;;;7.60;99.90;;;;;;5023276;28;20076;-54
2023/12/30 05:18:47;;;;;;;10.60;2.78;;;7.60;99.90;;;;;;5027986;28;20514;-56
2023/12/30 05:21:14;;;;;;;20.05;3.40;;;7.60;99.90;;;;;;5027030;28;20044;-54
2023/12/30 05:23:40;;;;;;;9.77;2.10;;;7.60;99.90;;;;;;5026464;28;20033;-57
2023/12/30 05:26:06;;;;;;;13.23;3.15;;;7.60;99.90;;;;;;5025364;28;21892;-56
2023/12/30 05:28:32;;;;;;;14.95;3.10;;;7.60;99.90;;;;;;5026152;28;20029;-57
2023/12/30 05:30:57;;;;;;;9.25;2.15;;;7.70;99.90;;;;;;5027155;28;20041;-56
2023/12/30 05:33:23;;;;;;;11.25;2.60;;;7.70;99.90;;;;;;5027731;28;20065;-54
2023/12/30 05:35:49;;;;;;;10.43;2.72;;;7.70;99.90;;;;;;5024119;28;20037;-55
2023/12/30 05:38:15;;;;;;;23.25;4.75;;;7.70;99.90;;;;;;5026633;28;20042;-55
2023/12/30 05:40:40;;;;;;;13.63;2.55;;;7.60;99.90;;;;;;5025939;28;20065;-54
2023/12/30 05:43:06;;;;;;;9.43;1.45;;;7.50;99.90;;;;;;5026114;28;20022;-54
2023/12/30 05:45:32;;;;;;;12.43;2.47;;;7.50;99.90;;;;;;5019761;28;20369;-54
2023/12/30 05:47:58;;;;;;;18.67;4.07;;;7.50;99.90;;;;;;5024294;28;20033;-56
2023/12/30 05:50:23;;;;;;;14.57;2.35;;;7.50;99.90;;;;;;5026276;28;20120;-56
2023/12/30 05:52:49;;;;;;;20.42;2.78;;;7.50;99.90;;;;;;5024401;28;20069;-56
2023/12/30 05:55:14;;;;;;;12.20;2.10;;;7.60;99.90;;;;;;5027718;28;20518;-55
2023/12/30 05:57:40;;;;;;;9.30;2.30;;;7.60;99.90;;;;;;5026796;28;20112;-54
2023/12/30 06:00:08;;;;;;;11.68;1.90;;;7.70;99.90;;;;;;5008020;28;20037;-57
2023/12/30 06:02:33;;;;;;;9.05;2.33;;;7.70;99.90;;;;;;5020522;28;20419;-56
2023/12/30 06:04:59;;;;;;;8.07;2.00;;;7.70;99.90;;;;;;5022491;28;20044;-56
2023/12/30 06:07:24;;;;;;;9.48;1.73;;;7.70;99.90;;;;;;5025731;28;20060;-57
2023/12/30 06:09:50;;;;;;;14.60;1.92;;;7.60;99.90;;;;;;5024685;28;20084;-58
2023/12/30 06:12:15;;;;;;;15.82;2.78;;;7.60;99.90;;;;;;5026752;28;20400;-57
2023/12/30 06:14:41;;;;;;;14.27;1.80;;;7.50;99.90;;;;;;5026721;28;20063;-57
2023/12/30 06:17:07;;;;;;;10.82;2.13;;;7.50;99.90;;;;;;5025637;28;20037;-55
2023/12/30 06:19:34;;;;;;;9.73;1.40;;;7.50;99.90;;;;;;5025152;28;20521;-55
2023/12/30 06:21:59;;;;;;;8.93;2.40;;;7.50;99.90;;;;;;5025248;28;20074;-53
2023/12/30 06:24:26;;;;;;;17.45;1.80;;;7.60;99.90;;;;;;5019972;28;20021;-54
2023/12/30 06:26:52;;;;;;;14.98;1.58;;;7.60;99.90;;;;;;5024351;28;20423;-56
2023/12/30 06:29:19;;;;;;;8.60;2.30;;;7.60;99.90;;;;;;5023652;28;20395;-54
2023/12/30 06:31:44;;;;;;;16.30;1.67;;;7.60;99.90;;;;;;5025388;28;20040;-54
2023/12/30 06:34:10;;;;;;;13.75;2.13;;;7.60;99.90;;;;;;5023820;28;20026;-55
2023/12/30 06:36:36;;;;;;;11.32;3.05;;;7.60;99.90;;;;;;5024053;28;20026;-55
2023/12/30 06:39:02;;;;;;;12.80;2.47;;;7.60;99.90;;;;;;5021979;28;20025;-56
2023/12/30 06:41:28;;;;;;;11.23;2.33;;;7.70;99.90;;;;;;5025922;28;20490;-56
2023/12/30 06:43:53;;;;;;;11.43;1.50;;;7.60;99.90;;;;;;5022193;28;20381;-56
2023/12/30 06:46:22;;;;;;;8.38;1.20;;;7.60;99.90;;;;;;5021930;28;20029;-56
2023/12/30 06:48:47;;;;;;;8.52;1.85;;;7.60;99.90;;;;;;5025343;28;20510;-54
2023/12/30 06:51:13;;;;;;;11.73;1.33;;;7.50;99.90;;;;;;5025123;28;20049;-55
2023/12/30 06:53:39;;;;;;;5.85;1.42;;;7.50;99.90;;;;;;5010985;28;20487;-56
2023/12/30 06:56:08;;;;;;;12.90;3.08;;;7.60;99.90;;;;;;5021941;28;20033;-52
2023/12/30 06:58:33;;;;;;;11.82;1.75;;;7.60;99.90;;;;;;5022748;28;20029;-56
2023/12/30 07:00:59;;;;;;;7.28;1.50;;;7.60;99.90;;;;;;5009708;28;20053;-53
2023/12/30 07:03:25;;;;;;;11.77;2.58;;;7.70;99.90;;;;;;5023748;28;20029;-54
2023/12/30 07:05:50;;;;;;;10.52;1.80;;;7.60;99.90;;;;;;5025356;28;20025;-57
2023/12/30 07:08:16;;;;;;;10.90;1.77;;;7.70;99.90;;;;;;5025047;28;20087;-54
2023/12/30 07:10:42;;;;;;;15.45;1.60;;;7.60;99.90;;;;;;5026258;28;20048;-54
2023/12/30 07:13:07;;;;;;;10.70;1.63;;;7.70;99.90;;;;;;5021951;28;20590;-53
2023/12/30 07:15:33;;;;;;;11.45;2.10;;;7.60;99.90;;;;;;5020443;28;20025;-53
2023/12/30 07:17:59;;;;;;;7.22;1.85;;;7.70;99.90;;;;;;5024016;28;20031;-53
2023/12/30 07:20:26;;;;;;;9.50;1.55;;;7.70;99.90;;;;;;5022538;28;20048;-56
2023/12/30 07:22:53;;;;;;;9.75;1.25;;;7.70;99.90;;;;;;5024972;28;20040;-50
2023/12/30 07:25:19;;;;;;;6.10;1.67;;;7.70;99.90;;;;;;5023073;28;20457;-56
2023/12/30 07:27:44;;;;;;;6.53;1.30;;;7.80;99.90;;;;;;5024845;28;20021;-55
2023/12/30 07:30:10;;;;;;;12.88;2.63;;;7.70;99.90;;;;;;5024371;28;20036;-53
2023/12/30 07:32:37;;;;;;;12.43;1.85;;;7.80;99.90;;;;;;5014761;28;20057;-50
2023/12/30 07:35:05;;;;;;;7.35;1.08;;;7.80;99.90;;;;;;5026804;28;20403;-57
2023/12/30 07:37:31;;;;;;;12.27;1.95;;;7.80;99.90;;;;;;5017600;28;20046;-53
2023/12/30 07:39:56;;;;;;;8.45;1.40;;;7.80;99.90;;;;;;5021475;28;20444;-53
2023/12/30 07:42:22;;;;;;;8.52;1.23;;;7.80;99.90;;;;;;5020005;28;20025;-51
2023/12/30 07:44:47;;;;;;;6.13;1.05;;;7.80;99.90;;;;;;5027558;28;20432;-53
2023/12/30 07:47:13;;;;;;;7.68;1.20;;;7.80;99.90;;;;;;5019764;28;20113;-52
2023/12/30 07:49:39;;;;;;;5.57;1.67;;;7.80;99.90;;;;;;5025718;28;20033;-52
2023/12/30 07:52:04;;;;;;;8.80;1.58;;;7.80;99.90;;;;;;5032808;28;20029;-52
2023/12/30 07:54:30;;;;;;;8.07;2.05;;;7.80;99.90;;;;;;5017191;28;20118;-54
2023/12/30 07:56:55;;;;;;;6.07;0.90;;;7.90;99.90;;;;;;5024506;28;20504;-50
2023/12/30 07:59:21;;;;;;;11.25;0.98;;;7.80;99.90;;;;;;5026261;28;20431;-55
2023/12/30 08:01:48;;;;;;;4.55;1.23;;;7.80;99.90;;;;;;5014753;28;20496;-54
2023/12/30 08:04:13;;;;;;;8.18;1.38;;;7.80;99.90;;;;;;5023444;28;20369;-51
2023/12/30 08:06:40;;;;;;;9.15;1.60;;;7.80;99.90;;;;;;5030213;28;20048;-53
2023/12/30 08:09:06;;;;;;;9.25;1.30;;;7.80;99.90;;;;;;5023501;28;20034;-53
2023/12/30 08:11:35;;;;;;;6.55;1.30;;;7.90;99.90;;;;;;5025950;28;20504;-53
2023/12/30 08:14:00;;;;;;;11.20;1.52;;;7.90;99.90;;;;;;5020003;28;20121;-56
2023/12/30 08:16:26;;;;;;;6.65;0.90;;;7.90;99.90;;;;;;5017163;28;20171;-54
2023/12/30 08:18:52;;;;;;;8.82;0.80;;;7.90;99.90;;;;;;5024550;28;20029;-54
2023/12/30 08:21:17;;;;;;;13.68;2.13;;;7.90;99.90;;;;;;5026958;28;20029;-55
2023/12/30 08:23:43;;;;;;;14.93;1.77;;;7.90;99.90;;;;;;5021918;28;20063;-52
2023/12/30 08:26:08;;;;;;;9.95;2.15;;;8.00;99.90;;;;;;5024098;28;20653;-54
2023/12/30 08:28:34;;;;;;;12.48;2.05;;;8.00;99.90;;;;;;5026717;28;20048;-54
2023/12/30 08:31:01;;;;;;;8.77;1.30;;;8.00;99.90;;;;;;5024018;28;20375;-56
2023/12/30 08:33:27;;;;;;;6.22;1.55;;;8.00;99.90;;;;;;5029074;28;20025;-52
2023/12/30 08:35:52;;;;;;;11.13;1.90;;;8.00;99.90;;;;;;5019571;28;20039;-54
2023/12/30 08:38:18;;;;;;;13.20;1.38;;;8.10;99.90;;;;;;5024630;28;20053;-55
2023/12/30 08:40:43;;;;;;;9.35;2.47;;;8.10;99.90;;;;;;5024981;28;20081;-54
2023/12/30 08:43:10;;;;;;;10.60;1.60;;;8.10;99.90;;;;;;5022416;28;20021;-53
2023/12/30 08:45:36;;;;;;;12.48;2.10;;;8.20;99.90;;;;;;5027114;28;20100;-54
2023/12/30 08:48:03;;;;;;;4.05;1.30;;;8.20;99.90;;;;;;5015480;28;20433;-57
2023/12/30 08:50:30;;;;;;;7.63;1.52;;;8.20;99.90;;;;;;5022649;28;20503;-54
2023/12/30 08:52:55;;;;;;;14.07;2.70;;;8.20;99.90;;;;;;5022969;28;20060;-56
2023/12/30 08:55:21;;;;;;;6.40;2.50;;;8.20;99.90;;;;;;5022493;28;20515;-53
2023/12/30 08:57:46;;;;;;;14.55;4.75;;;8.20;99.90;;;;;;5021629;28;20443;-53
2023/12/30 09:00:13;;;;;;;72.85;24.25;;;8.20;99.90;;;;;;5027316;28;20029;-52
2023/12/30 09:02:46;;;;;;;28.95;10.88;;;8.30;99.90;;;;;;5031458;28;20041;-51
2023/12/30 09:05:15;;;;;;;29.17;8.50;;;8.30;99.90;;;;;;5025056;28;20061;-53
2023/12/30 09:07:41;;;;;;;20.63;6.72;;;8.30;99.90;;;;;;5029717;28;20025;-56
2023/12/30 09:10:07;;;;;;;12.25;4.05;;;8.40;99.90;;;;;;5024882;28;20033;-52
2023/12/30 09:12:33;;;;;;;20.40;8.45;;;8.40;99.90;;;;;;5019088;28;20507;-54
2023/12/30 09:14:58;;;;;;;16.80;3.90;;;8.40;99.90;;;;;;5024837;28;20033;-55
2023/12/30 09:17:24;;;;;;;30.55;7.80;;;8.40;99.90;;;;;;5025828;28;20056;-53
2023/12/30 09:19:49;;;;;;;28.40;8.40;;;8.40;99.90;;;;;;5014276;28;20050;-54
2023/12/30 09:22:16;;;;;;;10.52;2.83;;;8.40;99.90;;;;;;5021366;28;20134;-54
2023/12/30 09:24:41;;;;;;;11.52;3.08;;;8.40;99.90;;;;;;5016599;28;20653;-50
2023/12/30 09:27:08;;;;;;;13.85;3.83;;;8.50;99.90;;;;;;5026339;28;20038;-50
2023/12/30 09:29:34;;;;;;;16.48;3.42;;;8.60;99.90;;;;;;5011002;28;20028;-53
2023/12/30 09:31:59;;;;;;;9.35;2.22;;;8.60;99.90;;;;;;5023278;28;20108;-52
2023/12/30 09:34:25;;;;;;;9.88;2.05;;;8.60;99.90;;;;;;5021370;28;20120;-55
2023/12/30 09:36:50;;;;;;;7.55;3.65;;;8.70;99.90;;;;;;5024671;28;20033;-51
2023/12/30 09:39:16;;;;;;;11.75;2.40;;;8.80;99.90;;;;;;5016471;28;20033;-54
2023/12/30 09:41:41;;;;;;;12.52;3.33;;;8.90;99.90;;;;;;5020693;28;20062;-54
2023/12/30 09:44:08;;;;;;;6.50;1.92;;;9.00;99.90;;;;;;5023713;28;20028;-57
2023/12/30 09:46:36;;;;;;;8.23;1.98;;;9.10;99.90;;;;;;5026046;28;20021;-53
2023/12/30 09:49:06;;;;;;;13.57;2.05;;;9.10;99.90;;;;;;5006083;28;20399;-51
2023/12/30 09:51:33;;;;;;;9.68;2.60;;;9.20;99.90;;;;;;5022966;28;20375;-53
2023/12/30 09:53:59;;;;;;;16.10;7.95;;;9.30;99.90;;;;;;5025150;28;20025;-52
2023/12/30 09:56:26;;;;;;;15.90;6.07;;;9.40;99.90;;;;;;5018472;28;20168;-53
2023/12/30 09:58:55;;;;;;;34.72;12.48;;;9.40;99.90;;;;;;5021892;28;20021;-53
2023/12/30 10:01:21;;;;;;;16.77;6.40;;;9.50;99.90;;;;;;5012576;28;20495;-52
2023/12/30 10:03:47;;;;;;;12.05;5.68;;;9.50;99.90;;;;;;5024680;28;20177;-53
2023/12/30 10:06:17;;;;;;;16.05;6.18;;;9.60;99.90;;;;;;5024473;28;20036;-53
2023/12/30 10:08:43;;;;;;;13.07;4.85;;;9.60;99.90;;;;;;5014669;28;20033;-50
2023/12/30 10:11:10;;;;;;;17.00;5.30;;;9.50;99.90;;;;;;5023053;28;20468;-54
2023/12/30 10:13:37;;;;;;;35.22;12.20;;;9.50;99.90;;;;;;5018407;28;20080;-54
2023/12/30 10:16:05;;;;;;;17.77;6.38;;;9.40;99.90;;;;;;5022584;28;20512;-53
2023/12/30 10:18:31;;;;;;;24.05;7.13;;;9.40;99.90;;;;;;5026287;28;20108;-52
2023/12/30 10:20:58;;;;;;;18.35;5.85;;;9.40;99.90;;;;;;5023426;28;20428;-52
2023/12/30 10:23:27;;;;;;;26.70;8.30;;;9.40;99.90;;;;;;5006328;28;20059;-54
2023/12/30 10:25:52;;;;;;;30.10;10.35;;;9.30;99.90;;;;;;5013887;28;20022;-51
2023/12/30 10:28:18;;;;;;;17.40;6.20;;;9.30;99.90;;;;;;5013739;28;20029;-53
2023/12/30 10:30:44;;;;;;;12.30;3.20;;;9.30;99.90;;;;;;5019973;28;20034;-53
2023/12/30 10:33:11;;;;;;;21.67;6.65;;;9.30;99.90;;;;;;5020139;28;20030;-54
2023/12/30 10:35:41;;;;;;;31.75;8.55;;;9.30;99.90;;;;;;5020033;28;20041;-54
2023/12/30 10:38:12;;;;;;;37.95;12.50;;;9.30;99.90;;;;;;5020783;28;20031;-56
2023/12/30 10:40:40;;;;;;;33.95;11.55;;;9.20;99.90;;;;;;5028956;28;20491;-53
2023/12/30 10:43:08;;;;;;;50.20;19.40;;;9.20;99.90;;;;;;5028403;28;20097;-56
2023/12/30 10:45:34;;;;;;;14.43;6.43;;;9.30;99.90;;;;;;5028531;28;20048;-53
2023/12/30 10:48:00;;;;;;;14.45;7.72;;;9.30;99.90;;;;;;5024050;28;20481;-56
2023/12/30 10:50:26;;;;;;;18.85;8.60;;;9.30;99.90;;;;;;5021894;28;20033;-54
2023/12/30 10:53:05;;;;;;;11.15;3.47;;;9.30;99.90;;;;;;5013686;28;20049;-55
2023/12/30 10:55:33;;;;;;;6.25;1.80;;;9.40;99.90;;;;;;5021252;28;20042;-54
2023/12/30 10:58:03;;;;;;;12.45;3.78;;;9.50;99.90;;;;;;5019138;28;20038;-52
2023/12/30 11:00:30;;;;;;;18.27;5.57;;;9.50;99.90;;;;;;5021326;28;20484;-53
2023/12/30 11:02:56;;;;;;;11.68;2.05;;;9.60;99.90;;;;;;5018520;28;20069;-52
2023/12/30 11:05:27;;;;;;;21.05;7.93;;;9.70;99.90;;;;;;5027784;28;20021;-52
2023/12/30 11:07:53;;;;;;;23.30;6.13;;;9.80;99.90;;;;;;5022650;28;20025;-53
2023/12/30 11:10:22;;;;;;;14.93;3.20;;;9.80;99.90;;;;;;5028717;28;20041;-55
2023/12/30 11:12:50;;;;;;;17.70;4.35;;;10.00;99.90;;;;;;5029278;28;20025;-51
2023/12/30 11:15:26;;;;;;;59.00;18.15;;;10.10;99.90;;;;;;5029038;28;20095;-53
2023/12/30 11:17:52;;;;;;;19.70;6.03;;;10.10;99.90;;;;;;5018075;28;20153;-54
2023/12/30 11:20:29;;;;;;;10.57;2.08;;;10.20;99.90;;;;;;5012844;28;20116;-53
2023/12/30 11:23:01;;;;;;;37.78;13.40;;;10.30;99.90;;;;;;5013151;28;20018;-53
2023/12/30 11:25:37;;;;;;;15.75;5.30;;;10.40;99.90;;;;;;5018460;28;20069;-52
2023/12/30 11:28:31;;;;;;;14.38;4.13;;;10.50;99.90;;;;;;5006915;28;20076;-54
2023/12/30 11:30:59;;;;;;;13.32;5.15;;;10.70;99.90;;;;;;5026040;28;20079;-52
2023/12/30 11:33:25;;;;;;;18.33;9.27;;;10.90;99.90;;;;;;5016730;28;20032;-52
2023/12/30 11:35:54;;;;;;;13.68;4.45;;;11.00;99.90;;;;;;5017808;28;20025;-54
2023/12/30 11:38:20;;;;;;;11.68;5.00;;;11.00;99.90;;;;;;5018925;28;20033;-55
2023/12/30 11:40:51;;;;;;;11.63;2.92;;;11.00;99.90;;;;;;5024345;28;20116;-56
2023/12/30 11:43:18;;;;;;;10.40;3.22;;;11.20;99.90;;;;;;5019643;28;20025;-52
2023/12/30 11:45:45;;;;;;;17.08;5.60;;;11.20;99.90;;;;;;5019394;28;20108;-54
2023/12/30 11:48:11;;;;;;;10.63;3.40;;;11.20;99.90;;;;;;5017812;28;20022;-53
2023/12/30 11:50:36;;;;;;;15.00;4.40;;;11.20;99.90;;;;;;5021364;28;20030;-56
2023/12/30 11:53:03;;;;;;;11.82;5.22;;;11.10;99.90;;;;;;5029450;28;20112;-55
2023/12/30 11:55:29;;;;;;;10.85;2.33;;;11.10;99.90;;;;;;5020537;28;20419;-54
2023/12/30 11:57:55;;;;;;;6.32;1.40;;;11.20;99.90;;;;;;5016168;28;20523;-54
2023/12/30 12:00:21;;;;;;;11.90;2.17;;;11.20;99.90;;;;;;5024856;28;20025;-56
2023/12/30 12:02:47;;;;;;;6.70;1.92;;;11.10;99.90;;;;;;5017514;28;20034;-54
2023/12/30 12:05:12;;;;;;;4.72;1.58;;;11.10;99.90;;;;;;5012371;28;20026;-55
2023/12/30 12:07:38;;;;;;;13.95;3.30;;;11.10;99.90;;;;;;5022074;28;20033;-52
2023/12/30 12:10:04;;;;;;;13.55;3.05;;;11.00;99.90;;;;;;5020798;28;20065;-56
2023/12/30 12:12:42;;;;;;;5.93;1.67;;;10.80;99.90;;;;;;5016121;28;20026;-51
2023/12/30 12:15:08;;;;;;;10.43;2.80;;;10.80;99.90;;;;;;5023415;28;20072;-54
2023/12/30 12:17:35;;;;;;;7.07;2.58;;;10.90;99.90;;;;;;5015365;28;20040;-54
2023/12/30 12:20:01;;;;;;;6.40;1.58;;;10.90;99.90;;;;;;5010939;28;20061;-56
2023/12/30 12:22:27;;;;;;;6.47;1.63;;;10.90;99.90;;;;;;5026579;28;20041;-51
2023/12/30 12:24:52;;;;;;;6.93;1.75;;;11.00;99.90;;;;;;5014363;28;20025;-52
2023/12/30 12:27:22;;;;;;;7.43;1.92;;;11.00;99.90;;;;;;5024337;28;20094;-55
2023/12/30 12:29:52;;;;;;;10.65;2.08;;;11.10;99.90;;;;;;5023719;28;20029;-52
2023/12/30 12:32:22;;;;;;;6.45;1.63;;;11.10;99.90;;;;;;5025600;28;20030;-54
2023/12/30 12:34:48;;;;;;;7.82;1.40;;;11.10;99.90;;;;;;5019084;28;20026;-56
2023/12/30 12:37:17;;;;;;;15.10;2.22;;;11.00;99.90;;;;;;5019945;28;20449;-51
2023/12/30 12:39:46;;;;;;;13.18;1.77;;;11.00;99.90;;;;;;5024129;28;20036;-51
2023/12/30 12:42:13;;;;;;;9.40;2.40;;;11.10;99.90;;;;;;5026484;28;20021;-51
2023/12/30 12:44:39;;;;;;;5.63;1.42;;;11.10;99.90;;;;;;5020838;28;20026;-51